Time;durP1;ratioP1;P1;durP2;ratioP2;P2;SDS_P1;SDS_P2;PMS_P1;PMS_P2;Temp;Humidity;BMP_temperature;BMP_pressure;BME280_temperature;BME280_humidity;BME280_pressure;Samples;Min_cycle;Max_cycle;Signal;HPM_P1;HPM_P2
2023/10/30 00:01:07;;;;;;;;;;;;;;;;;;5054904;28;19990;-74
2023/10/30 00:03:33;;;;;;;;;;;;;;;;;;5054621;28;20004;-75
2023/10/30 00:05:59;;;;;;;;;;;;;;;;;;5054910;28;20430;-75
2023/10/30 00:08:26;;;;;;;;;;;;;;;;;;5054926;28;19993;-74
2023/10/30 00:10:52;;;;;;;;;;;;;;;;;;5053425;28;19993;-76
2023/10/30 00:13:18;;;;;;;;;;;;;;;;;;5054673;28;20436;-74
2023/10/30 00:15:44;;;;;;;;;;;;;;;;;;5054730;28;19986;-73
2023/10/30 00:18:10;;;;;;;;;;;;;;;;;;5054789;28;20048;-76
2023/10/30 00:20:39;;;;;;;;;;;;;;;;;;5054585;28;19989;-74
2023/10/30 00:23:05;;;;;;;;;;;;;;;;;;5054504;28;19990;-74
2023/10/30 00:25:31;;;;;;;;;;;;;;;;;;5054284;28;19997;-74
2023/10/30 00:28:00;;;;;;;;;;;;;;;;;;5053265;28;19996;-75
2023/10/30 00:30:28;;;;;;;;;;;;;;;;;;5054278;28;20032;-74
2023/10/30 00:32:54;;;;;;;;;;;;;;;;;;5054273;28;20006;-74
2023/10/30 00:35:20;;;;;;;;;;;;;;;;;;5054136;28;20503;-75
2023/10/30 00:37:46;;;;;;;;;;;;;;;;;;5053987;28;20373;-75
2023/10/30 00:40:11;;;;;;;;;;;;;;;;;;5054106;28;20096;-75
2023/10/30 00:42:37;;;;;;;;;;;;;;;;;;5052759;28;20012;-75
2023/10/30 00:45:04;;;;;;;;;;;;;;;;;;5053963;28;19989;-74
2023/10/30 00:47:30;;;;;;;;;;;;;;;;;;5053434;28;19986;-73
2023/10/30 00:49:58;;;;;;;;;;;;;;;;;;5053875;28;20001;-74
2023/10/30 00:52:25;;;;;;;;;;;;;;;;;;5053849;28;19993;-74
2023/10/30 00:54:51;;;;;;;;;;;;;;;;;;5053984;28;20154;-75
2023/10/30 00:57:17;;;;;;;;;;;;;;;;;;5053972;28;20039;-73
2023/10/30 00:59:43;;;;;;;;;;;;;;;;;;5052724;28;20084;-75
2023/10/30 01:02:09;;;;;;;;;;;;;;;;;;5035699;28;20084;-74
2023/10/30 01:04:35;;;;;;;;;;;;;;;;;;5053597;28;20442;-73
2023/10/30 01:07:02;;;;;;;;;;;;;;;;;;5053683;28;19986;-74
2023/10/30 01:09:28;;;;;;;;;;;;;;;;;;5053405;28;20084;-74
2023/10/30 01:11:54;;;;;;;;;;;;;;;;;;5053326;28;20032;-74
2023/10/30 01:14:20;;;;;;;;;;;;;;;;;;5052066;28;20021;-73
2023/10/30 01:16:48;;;;;;;;;;;;;;;;;;5053559;28;20042;-74
2023/10/30 01:19:14;;;;;;;;;;;;;;;;;;5053364;28;20050;-74
2023/10/30 01:21:40;;;;;;;;;;;;;;;;;;5053354;28;19985;-74
2023/10/30 01:24:06;;;;;;;;;;;;;;;;;;5053498;28;20047;-73
2023/10/30 01:26:33;;;;;;;;;;;;;;;;;;5053510;28;19993;-74
2023/10/30 01:28:59;;;;;;;;;;;;;;;;;;5053442;28;20438;-73
2023/10/30 01:31:27;;;;;;;;;;;;;;;;;;5051973;28;19996;-73
2023/10/30 01:33:53;;;;;;;;;;;;;;;;;;5052896;28;20416;-73
2023/10/30 01:36:21;;;;;;;;;;;;;;;;;;5053119;28;19986;-74
2023/10/30 01:38:47;;;;;;;;;;;;;;;;;;5052997;28;20085;-73
2023/10/30 01:41:13;;;;;;;;;;;;;;;;;;5052716;28;20076;-73
2023/10/30 01:43:39;;;;;;;;;;;;;;;;;;5052885;28;20019;-73
2023/10/30 01:46:08;;;;;;;;;;;;;;;;;;5052721;28;19986;-73
2023/10/30 01:48:35;;;;;;;;;;;;;;;;;;5051721;28;20002;-73
2023/10/30 01:51:01;;;;;;;;;;;;;;;;;;5034869;28;20412;-73
2023/10/30 01:53:27;;;;;;;;;;;;;;;;;;5034748;28;20446;-73
2023/10/30 01:55:53;;;;;;;;;;;;;;;;;;5052381;28;20436;-73
2023/10/30 01:58:19;;;;;;;;;;;;;;;;;;5051649;28;20077;-73
2023/10/30 02:00:48;;;;;;;;;;;;;;;;;;5052635;28;19995;-72
2023/10/30 02:03:14;;;;;;;;;;;;;;;;;;5051206;28;20365;-74
2023/10/30 02:05:40;;;;;;;;;;;;;;;;;;5052508;28;19993;-73
2023/10/30 02:08:09;;;;;;;;;;;;;;;;;;5052341;28;19986;-74
2023/10/30 02:10:35;;;;;;;;;;;;;;;;;;5052358;28;19990;-73
2023/10/30 02:13:01;;;;;;;;;;;;;;;;;;5051989;28;19986;-73
2023/10/30 02:15:28;;;;;;;;;;;;;;;;;;5052133;28;20021;-73
2023/10/30 02:17:54;;;;;;;;;;;;;;;;;;5052217;28;20029;-73
2023/10/30 02:20:20;;;;;;;;;;;;;;;;;;5050865;28;20032;-72
2023/10/30 02:22:48;;;;;;;;;;;;;;;;;;5052151;28;19986;-72
2023/10/30 02:25:14;;;;;;;;;;;;;;;;;;5052144;28;19990;-72
2023/10/30 02:27:40;;;;;;;;;;;;;;;;;;5051840;28;19990;-72
2023/10/30 02:30:08;;;;;;;;;;;;;;;;;;5052000;28;19990;-73
2023/10/30 02:32:34;;;;;;;;;;;;;;;;;;5033659;28;20105;-71
2023/10/30 02:35:02;;;;;;;;;;;;;;;;;;5050933;28;20116;-71
2023/10/30 02:37:28;;;;;;;;;;;;;;;;;;5051956;28;19990;-72
2023/10/30 02:39:54;;;;;;;;;;;;;;;;;;5051752;28;20511;-72
2023/10/30 02:42:20;;;;;;;;;;;;;;;;;;5051717;28;20015;-72
2023/10/30 02:44:46;;;;;;;;;;;;;;;;;;5051475;28;20032;-71
2023/10/30 02:47:12;;;;;;;;;;;;;;;;;;5051605;28;19997;-72
2023/10/30 02:49:39;;;;;;;;;;;;;;;;;;5051640;28;20121;-72
2023/10/30 02:52:04;;;;;;;;;;;;;;;;;;5050458;28;19992;-71
2023/10/30 02:54:30;;;;;;;;;;;;;;;;;;5051586;28;20010;-72
2023/10/30 02:56:56;;;;;;;;;;;;;;;;;;5051541;28;19989;-72
2023/10/30 02:59:22;;;;;;;;;;;;;;;;;;5051407;28;19993;-72
2023/10/30 03:01:50;;;;;;;;;;;;;;;;;;5051342;28;20128;-71
2023/10/30 03:04:17;;;;;;;;;;;;;;;;;;5051425;28;20326;-71
2023/10/30 03:06:42;;;;;;;;;;;;;;;;;;5051680;28;19997;-71
2023/10/30 03:09:08;;;;;;;;;;;;;;;;;;5050094;28;20001;-71
2023/10/30 03:11:34;;;;;;;;;;;;;;;;;;5051230;28;19992;-72
2023/10/30 03:14:02;;;;;;;;;;;;;;;;;;5051029;28;20120;-70
2023/10/30 03:16:28;;;;;;;;;;;;;;;;;;5051738;28;19994;-70
2023/10/30 03:18:57;;;;;;;;;;;;;;;;;;5051250;28;19994;-71
2023/10/30 03:21:23;;;;;;;;;;;;;;;;;;5051373;28;20085;-70
2023/10/30 03:23:49;;;;;;;;;;;;;;;;;;5051418;28;20048;-71
2023/10/30 03:26:15;;;;;;;;;;;;;;;;;;5050147;28;20048;-70
2023/10/30 03:28:43;;;;;;;;;;;;;;;;;;5050891;28;19985;-70
2023/10/30 03:31:11;;;;;;;;;;;;;;;;;;5051410;28;19993;-71
2023/10/30 03:33:36;;;;;;;;;;;;;;;;;;5050805;28;20075;-70
2023/10/30 03:36:02;;;;;;;;;;;;;;;;;;5051208;28;19989;-72
2023/10/30 03:38:28;;;;;;;;;;;;;;;;;;5050989;28;20059;-70
2023/10/30 03:40:54;;;;;;;;;;;;;;;;;;5050701;28;20032;-71
2023/10/30 03:43:20;;;;;;;;;;;;;;;;;;5050082;28;20048;-71
2023/10/30 03:45:46;;;;;;;;;;;;;;;;;;5051007;28;19985;-71
2023/10/30 03:48:12;;;;;;;;;;;;;;;;;;5050977;28;19986;-72
2023/10/30 03:50:38;;;;;;;;;;;;;;;;;;5050859;28;20035;-71
2023/10/30 03:53:04;;;;;;;;;;;;;;;;;;5051138;28;19990;-72
2023/10/30 03:55:30;;;;;;;;;;;;;;;;;;5051067;28;20493;-72
2023/10/30 03:57:57;;;;;;;;;;;;;;;;;;5051138;28;20077;-71
2023/10/30 04:00:23;;;;;;;;;;;;;;;;;;5050298;28;19998;-70
2023/10/30 04:02:49;;;;;;;;;;;;;;;;;;5051137;28;20458;-71
2023/10/30 04:05:16;;;;;;;;;;;;;;;;;;5050970;28;19996;-70
2023/10/30 04:07:42;;;;;;;;;;;;;;;;;;5051065;28;20640;-69
2023/10/30 04:10:08;;;;;;;;;;;;;;;;;;5050958;28;19990;-69
2023/10/30 04:12:34;;;;;;;;;;;;;;;;;;5050777;28;19993;-70
2023/10/30 04:15:00;;;;;;;;;;;;;;;;;;5032842;28;20036;-70
2023/10/30 04:17:26;;;;;;;;;;;;;;;;;;5048363;28;19994;-71
2023/10/30 04:19:52;;;;;;;;;;;;;;;;;;5050906;28;19997;-70
2023/10/30 04:22:20;;;;;;;;;;;;;;;;;;5053203;28;19986;-70
2023/10/30 04:24:46;;;;;;;;;;;;;;;;;;5054285;28;19986;-71
2023/10/30 04:27:12;;;;;;;;;;;;;;;;;;5054253;28;20080;-71
2023/10/30 04:29:38;;;;;;;;;;;;;;;;;;5054278;28;20088;-70
2023/10/30 04:32:04;;;;;;;;;;;;;;;;;;5054095;28;20005;-70
2023/10/30 04:34:30;;;;;;;;;;;;;;;;;;5054508;28;20009;-71
2023/10/30 04:36:56;;;;;;;;;;;;;;;;;;5052993;28;20380;-70
2023/10/30 04:39:22;;;;;;;;;;;;;;;;;;5054186;28;20001;-71
2023/10/30 04:41:48;;;;;;;;;;;;;;;;;;5053888;28;20021;-70
2023/10/30 04:44:14;;;;;;;;;;;;;;;;;;5053966;28;20080;-70
2023/10/30 04:46:40;;;;;;;;;;;;;;;;;;5054044;28;20024;-70
2023/10/30 04:49:06;;;;;;;;;;;;;;;;;;5053894;28;20057;-70
2023/10/30 04:51:33;;;;;;;;;;;;;;;;;;5052871;28;19989;-70
2023/10/30 04:53:59;;;;;;;;;;;;;;;;;;5053780;28;20055;-69
2023/10/30 04:56:26;;;;;;;;;;;;;;;;;;5053688;28;20104;-70
2023/10/30 04:58:52;;;;;;;;;;;;;;;;;;5053880;28;19990;-70
2023/10/30 05:01:18;;;;;;;;;;;;;;;;;;5053865;28;19996;-70
2023/10/30 05:03:44;;;;;;;;;;;;;;;;;;5053522;28;19996;-70
2023/10/30 05:06:10;;;;;;;;;;;;;;;;;;5053667;28;19997;-69
2023/10/30 05:08:36;;;;;;;;;;;;;;;;;;5052425;28;20143;-70
2023/10/30 05:11:02;;;;;;;;;;;;;;;;;;5053705;28;20055;-70
2023/10/30 05:13:28;;;;;;;;;;;;;;;;;;5053185;28;20455;-70
2023/10/30 05:15:56;;;;;;;;;;;;;;;;;;5053430;28;20021;-70
2023/10/30 05:18:24;;;;;;;;;;;;;;;;;;5053373;28;20560;-70
2023/10/30 05:20:50;;;;;;;;;;;;;;;;;;5053355;28;20009;-70
2023/10/30 05:23:16;;;;;;;;;;;;;;;;;;5052021;28;20127;-70
2023/10/30 05:25:42;;;;;;;;;;;;;;;;;;5053344;28;19989;-70
2023/10/30 05:28:08;;;;;;;;;;;;;;;;;;5053513;28;19990;-70
2023/10/30 05:30:35;;;;;;;;;;;;;;;;;;5053212;28;19989;-70
2023/10/30 05:33:01;;;;;;;;;;;;;;;;;;5053203;28;20005;-70
2023/10/30 05:35:26;;;;;;;;;;;;;;;;;;5051646;28;20587;-70
2023/10/30 05:37:52;;;;;;;;;;;;;;;;;;5051960;28;19986;-70
2023/10/30 05:40:19;;;;;;;;;;;;;;;;;;5052634;28;19990;-70
2023/10/30 05:42:44;;;;;;;;;;;;;;;;;;5051186;28;20036;-70
2023/10/30 05:45:10;;;;;;;;;;;;;;;;;;5052736;28;20047;-70
2023/10/30 05:47:36;;;;;;;;;;;;;;;;;;5052710;28;20000;-70
2023/10/30 05:50:02;;;;;;;;;;;;;;;;;;5042064;28;20463;-70
2023/10/30 05:52:29;;;;;;;;;;;;;;;;;;5052342;28;19993;-70
2023/10/30 05:54:55;;;;;;;;;;;;;;;;;;5051269;28;20019;-69
2023/10/30 05:57:20;;;;;;;;;;;;;;;;;;5052643;28;19994;-69
2023/10/30 05:59:46;;;;;;;;;;;;;;;;;;5052252;28;20040;-70
2023/10/30 06:02:14;;;;;;;;;;;;;;;;;;5052430;28;19988;-70
2023/10/30 06:04:40;;;;;;;;;;;;;;;;;;5048999;28;19989;-70
2023/10/30 06:07:07;;;;;;;;;;;;;;;;;;5047603;28;19997;-70
2023/10/30 06:09:33;;;;;;;;;;;;;;;;;;5051907;28;20059;-76
2023/10/30 06:11:59;;;;;;;;;;;;;;;;;;5050704;28;20405;-63
2023/10/30 06:14:25;;;;;;;;;;;;;;;;;;5049748;28;20071;-64
2023/10/30 06:16:51;;;;;;;;;;;;;;;;;;5051157;28;19996;-63
2023/10/30 06:19:17;;;;;;;;;;;;;;;;;;5051305;28;20335;-62
2023/10/30 06:21:46;;;;;;;;;;;;;;;;;;5049668;28;19993;-67
2023/10/30 06:24:12;;;;;;;;;;;;;;;;;;5052105;28;19997;-66
2023/10/30 06:26:38;;;;;;;;;;;;;;;;;;5051226;28;19993;-66
2023/10/30 06:29:04;;;;;;;;;;;;;;;;;;5050123;28;19997;-67
2023/10/30 06:31:30;;;;;;;;;;;;;;;;;;5051659;28;19985;-67
2023/10/30 06:33:56;;;;;;;;;;;;;;;;;;5051959;28;20045;-67
2023/10/30 06:36:22;;;;;;;;;;;;;;;;;;5050610;28;20427;-66
2023/10/30 06:38:48;;;;;;;;;;;;;;;;;;5050971;28;19997;-66
2023/10/30 06:41:14;;;;;;;;;;;;;;;;;;5051846;28;19993;-67
2023/10/30 06:43:40;;;;;;;;;;;;;;;;;;5049738;28;19996;-67
2023/10/30 06:46:08;;;;;;;;;;;;;;;;;;5049874;28;19993;-66
2023/10/30 06:48:34;;;;;;;;;;;;;;;;;;5051372;28;19994;-66
2023/10/30 06:51:00;;;;;;;;;;;;;;;;;;5050759;28;20299;-67
2023/10/30 06:53:26;;;;;;;;;;;;;;;;;;5051347;28;19989;-66
2023/10/30 06:55:52;;;;;;;;;;;;;;;;;;5051332;28;20013;-69
2023/10/30 06:58:18;;;;;;;;;;;;;;;;;;5050541;28;19989;-70
2023/10/30 07:00:44;;;;;;;;;;;;;;;;;;5050904;28;20012;-70
2023/10/30 07:03:09;;;;;;;;;;;;;;;;;;5050074;28;20448;-70
2023/10/30 07:05:35;;;;;;;;;;;;;;;;;;5050699;28;20012;-68
2023/10/30 07:08:02;;;;;;;;;;;;;;;;;;5051628;28;20043;-69
2023/10/30 07:10:28;;;;;;;;;;;;;;;;;;5051348;28;20120;-68
2023/10/30 07:12:54;;;;;;;;;;;;;;;;;;5032848;28;20051;-69
2023/10/30 07:15:20;;;;;;;;;;;;;;;;;;5050686;28;20024;-69
2023/10/30 07:17:47;;;;;;;;;;;;;;;;;;5051476;28;20456;-68
2023/10/30 07:20:12;;;;;;;;;;;;;;;;;;5044340;28;20082;-70
2023/10/30 07:22:38;;;;;;;;;;;;;;;;;;5033228;28;20060;-68
2023/10/30 07:25:04;;;;;;;;;;;;;;;;;;5051223;28;19996;-69
2023/10/30 07:27:30;;;;;;;;;;;;;;;;;;5050509;28;19994;-69
2023/10/30 07:29:56;;;;;;;;;;;;;;;;;;5051612;28;19994;-70
2023/10/30 07:32:22;;;;;;;;;;;;;;;;;;5048488;28;20002;-69
2023/10/30 07:34:48;;;;;;;;;;;;;;;;;;5048005;28;20013;-70
2023/10/30 07:37:14;;;;;;;;;;;;;;;;;;5050342;28;20375;-67
2023/10/30 07:39:40;;;;;;;;;;;;;;;;;;5048196;28;20081;-69
2023/10/30 07:42:06;;;;;;;;;;;;;;;;;;5050165;28;20504;-69
2023/10/30 07:44:32;;;;;;;;;;;;;;;;;;5050520;28;19990;-69
2023/10/30 07:46:58;;;;;;;;;;;;;;;;;;5050988;28;19990;-69
2023/10/30 07:49:24;;;;;;;;;;;;;;;;;;5050459;28;20442;-69
2023/10/30 07:51:50;;;;;;;;;;;;;;;;;;5048844;28;19998;-69
2023/10/30 07:54:15;;;;;;;;;;;;;;;;;;5050100;28;20020;-69
2023/10/30 07:56:42;;;;;;;;;;;;;;;;;;5052735;28;20035;-69
2023/10/30 07:59:08;;;;;;;;;;;;;;;;;;5054991;28;19996;-68
2023/10/30 08:01:34;;;;;;;;;;;;;;;;;;5054848;28;19989;-70
2023/10/30 08:04:00;;;;;;;;;;;;;;;;;;5054957;28;19994;-71
2023/10/30 08:06:25;;;;;;;;;;;;;;;;;;5054681;28;20509;-68
2023/10/30 08:08:52;;;;;;;;;;;;;;;;;;5052140;28;19990;-70
2023/10/30 08:11:18;;;;;;;;;;;;;;;;;;5054229;28;19994;-69
2023/10/30 08:13:43;;;;;;;;;;;;;;;;;;5054701;28;20112;-70
2023/10/30 08:16:10;;;;;;;;;;;;;;;;;;5054159;28;20064;-69
2023/10/30 08:18:36;;;;;;;;;;;;;;;;;;5034789;28;20370;-70
2023/10/30 08:21:02;;;;;;;;;;;;;;;;;;5034606;28;20454;-70
2023/10/30 08:23:28;;;;;;;;;;;;;;;;;;5034647;28;19986;-70
2023/10/30 08:25:53;;;;;;;;;;;;;;;;;;5036789;28;20044;-70
2023/10/30 08:28:19;;;;;;;;;;;;;;;;;;5054374;28;19990;-70
2023/10/30 08:30:45;;;;;;;;;;;;;;;;;;5054391;28;19986;-69
2023/10/30 08:33:11;;;;;;;;;;;;;;;;;;5054465;28;20011;-69
2023/10/30 08:35:37;;;;;;;;;;;;;;;;;;5054303;28;20439;-70
2023/10/30 08:38:04;;;;;;;;;;;;;;;;;;5054259;28;19992;-69
2023/10/30 08:40:30;;;;;;;;;;;;;;;;;;5036001;28;20377;-70
2023/10/30 08:42:55;;;;;;;;;;;;;;;;;;5053264;28;19985;-69
2023/10/30 08:45:22;;;;;;;;;;;;;;;;;;5033889;28;20089;-70
2023/10/30 08:47:48;;;;;;;;;;;;;;;;;;5034429;28;19995;-70
2023/10/30 08:50:14;;;;;;;;;;;;;;;;;;5016356;28;20544;-70
2023/10/30 08:52:40;;;;;;;;;;;;;;;;;;5034062;28;19993;-70
2023/10/30 08:55:06;;;;;;;;;;;;;;;;;;5033977;28;20021;-70
2023/10/30 08:57:32;;;;;;;;;;;;;;;;;;5034001;28;19990;-70
2023/10/30 08:59:58;;;;;;;;;;;;;;;;;;5033935;28;20035;-70
2023/10/30 09:02:24;;;;;;;;;;;;;;;;;;5051957;28;19993;-70
2023/10/30 09:04:50;;;;;;;;;;;;;;;;;;5053932;28;19989;-69
2023/10/30 09:07:16;;;;;;;;;;;;;;;;;;5053392;28;20501;-69
2023/10/30 09:09:42;;;;;;;;;;;;;;;;;;5053420;28;19985;-69
2023/10/30 09:12:08;;;;;;;;;;;;;;;;;;5053383;28;20068;-69
2023/10/30 09:14:33;;;;;;;;;;;;;;;;;;5053196;28;20026;-69
2023/10/30 09:16:59;;;;;;;;;;;;;;;;;;5052591;28;19998;-69
2023/10/30 09:19:25;;;;;;;;;;;;;;;;;;5053516;28;19990;-68
2023/10/30 09:21:52;;;;;;;;;;;;;;;;;;5053395;28;20164;-67
2023/10/30 09:24:18;;;;;;;;;;;;;;;;;;5053402;28;19990;-69
2023/10/30 09:26:44;;;;;;;;;;;;;;;;;;5053314;28;20355;-68
2023/10/30 09:29:09;;;;;;;;;;;;;;;;;;5053260;28;19986;-68
2023/10/30 09:31:35;;;;;;;;;;;;;;;;;;5051896;28;19997;-69
2023/10/30 09:34:01;;;;;;;;;;;;;;;;;;5053010;28;20001;-70
2023/10/30 09:36:27;;;;;;;;;;;;;;;;;;5052868;28;19993;-69
2023/10/30 09:38:53;;;;;;;;;;;;;;;;;;5053183;28;20037;-69
2023/10/30 09:41:19;;;;;;;;;;;;;;;;;;5053014;28;20477;-69
2023/10/30 09:43:45;;;;;;;;;;;;;;;;;;5052916;28;20080;-69
2023/10/30 09:46:11;;;;;;;;;;;;;;;;;;5052979;28;20001;-69
2023/10/30 09:48:37;;;;;;;;;;;;;;;;;;5051477;28;19994;-68
2023/10/30 09:51:03;;;;;;;;;;;;;;;;;;5052856;28;19990;-68
2023/10/30 09:53:29;;;;;;;;;;;;;;;;;;5052836;28;20092;-69
2023/10/30 09:55:55;;;;;;;;;;;;;;;;;;5052489;28;20108;-68
2023/10/30 09:58:21;;;;;;;;;;;;;;;;;;5052477;28;20077;-69
2023/10/30 10:00:47;;;;;;;;;;;;;;;;;;5052612;28;19993;-69
2023/10/30 10:03:13;;;;;;;;;;;;;;;;;;5051769;28;19997;-70
2023/10/30 10:05:39;;;;;;;;;;;;;;;;;;5052707;28;19989;-70
2023/10/30 10:08:05;;;;;;;;;;;;;;;;;;5052313;28;20025;-69
2023/10/30 10:10:31;;;;;;;;;;;;;;;;;;5052452;28;19986;-70
2023/10/30 10:12:58;;;;;;;;;;;;;;;;;;5052098;28;20055;-69
2023/10/30 10:15:25;;;;;;;;;;;;;;;;;;5052408;28;20021;-70
2023/10/30 10:17:51;;;;;;;;;;;;;;;;;;5052598;28;19993;-70
2023/10/30 10:20:21;;;;;;;;;;;;;;;;;;5050626;28;19998;-70
2023/10/30 10:22:48;;;;;;;;;;;;;;;;;;5034223;28;20086;-70
2023/10/30 10:25:18;;;;;;;;;;;;;;;;;;5052079;28;20024;-70
2023/10/30 10:27:44;;;;;;;;;;;;;;;;;;5052161;28;20133;-71
2023/10/30 10:30:10;;;;;;;;;;;;;;;;;;5052251;28;19989;-71
2023/10/30 10:32:37;;;;;;;;;;;;;;;;;;5052045;28;20005;-70
2023/10/30 10:35:05;;;;;;;;;;;;;;;;;;5052285;28;20009;-70
2023/10/30 10:37:31;;;;;;;;;;;;;;;;;;5050653;28;19993;-69
2023/10/30 10:39:57;;;;;;;;;;;;;;;;;;5050516;28;20000;-70
2023/10/30 10:42:23;;;;;;;;;;;;;;;;;;5050662;28;20033;-70
2023/10/30 10:44:49;;;;;;;;;;;;;;;;;;5051902;28;19992;-70
2023/10/30 10:47:15;;;;;;;;;;;;;;;;;;5050868;28;20072;-71
2023/10/30 10:49:41;;;;;;;;;;;;;;;;;;5052289;28;20488;-71
2023/10/30 10:52:07;;;;;;;;;;;;;;;;;;5051673;28;20507;-71
2023/10/30 10:54:35;;;;;;;;;;;;;;;;;;5051495;28;20009;-71
2023/10/30 10:57:01;;;;;;;;;;;;;;;;;;5051965;28;19990;-71
2023/10/30 10:59:28;;;;;;;;;;;;;;;;;;5051808;28;20457;-71
2023/10/30 11:01:54;;;;;;;;;;;;;;;;;;5051622;28;20069;-70
2023/10/30 11:04:20;;;;;;;;;;;;;;;;;;5050465;28;20085;-70
2023/10/30 11:06:45;;;;;;;;;;;;;;;;;;5051731;28;19993;-72
2023/10/30 11:09:11;;;;;;;;;;;;;;;;;;5051406;28;20092;-70
2023/10/30 11:11:37;;;;;;;;;;;;;;;;;;5051541;28;19999;-70
2023/10/30 11:14:04;;;;;;;;;;;;;;;;;;5051223;28;20025;-71
2023/10/30 11:16:30;;;;;;;;;;;;;;;;;;5051664;28;19993;-71
2023/10/30 11:18:56;;;;;;;;;;;;;;;;;;5050251;28;19986;-71
2023/10/30 11:21:22;;;;;;;;;;;;;;;;;;5051524;28;19986;-70
2023/10/30 11:23:48;;;;;;;;;;;;;;;;;;5051311;28;20021;-70
2023/10/30 11:26:14;;;;;;;;;;;;;;;;;;5051819;28;20029;-71
2023/10/30 11:28:40;;;;;;;;;;;;;;;;;;5051332;28;20599;-71
2023/10/30 11:31:06;;;;;;;;;;;;;;;;;;5054010;28;20027;-72
2023/10/30 11:33:32;;;;;;;;;;;;;;;;;;5054150;28;20013;-71
2023/10/30 11:35:59;;;;;;;;;;;;;;;;;;5055301;28;20025;-70
2023/10/30 11:38:24;;;;;;;;;;;;;;;;;;5037461;28;20029;-71
2023/10/30 11:40:50;;;;;;;;;;;;;;;;;;5055351;28;20491;-71
2023/10/30 11:43:16;;;;;;;;;;;;;;;;;;5055546;28;20043;-71
2023/10/30 11:45:42;;;;;;;;;;;;;;;;;;5055135;28;20084;-70
2023/10/30 11:48:08;;;;;;;;;;;;;;;;;;5055138;28;20029;-72
2023/10/30 11:50:34;;;;;;;;;;;;;;;;;;5036136;28;20048;-70
2023/10/30 11:53:00;;;;;;;;;;;;;;;;;;5055002;28;20011;-70
2023/10/30 11:55:26;;;;;;;;;;;;;;;;;;5055131;28;20017;-70
2023/10/30 11:57:52;;;;;;;;;;;;;;;;;;5055219;28;20315;-70
2023/10/30 12:00:18;;;;;;;;;;;;;;;;;;5035777;28;19997;-70
2023/10/30 12:02:46;;;;;;;;;;;;;;;;;;5054767;28;19996;-69
2023/10/30 12:05:12;;;;;;;;;;;;;;;;;;5054705;28;19993;-70
2023/10/30 12:07:38;;;;;;;;;;;;;;;;;;5054789;28;19990;-70
2023/10/30 12:10:04;;;;;;;;;;;;;;;;;;5054679;28;19989;-70
2023/10/30 12:12:30;;;;;;;;;;;;;;;;;;5054642;28;19990;-69
2023/10/30 12:14:56;;;;;;;;;;;;;;;;;;5054341;28;20025;-70
2023/10/30 12:17:22;;;;;;;;;;;;;;;;;;5053408;28;20347;-70
2023/10/30 12:19:48;;;;;;;;;;;;;;;;;;5054521;28;20040;-69
2023/10/30 12:22:14;;;;;;;;;;;;;;;;;;5054473;28;19993;-69
2023/10/30 12:24:40;;;;;;;;;;;;;;;;;;5054756;28;20001;-69
2023/10/30 12:27:06;;;;;;;;;;;;;;;;;;5054316;28;19994;-69
2023/10/30 12:29:32;;;;;;;;;;;;;;;;;;5054792;28;19985;-70
2023/10/30 12:31:58;;;;;;;;;;;;;;;;;;5051903;28;19993;-69
2023/10/30 12:34:24;;;;;;;;;;;;;;;;;;5054253;28;20377;-69
2023/10/30 12:36:49;;;;;;;;;;;;;;;;;;5054648;28;20133;-69
2023/10/30 12:39:16;;;;;;;;;;;;;;;;;;5054345;28;20004;-70
2023/10/30 12:41:42;;;;;;;;;;;;;;;;;;5053406;28;19993;-69
2023/10/30 12:44:08;;;;;;;;;;;;;;;;;;5054375;28;20369;-68
2023/10/30 12:46:34;;;;;;;;;;;;;;;;;;5054198;28;20068;-69
2023/10/30 12:49:00;;;;;;;;;;;;;;;;;;5052997;28;20048;-69
2023/10/30 12:51:29;;;;;;;;;;;;;;;;;;5054263;28;19994;-72
2023/10/30 12:53:56;;;;;;;;;;;;;;;;;;5054110;28;20047;-69
2023/10/30 12:56:23;;;;;;;;;;;;;;;;;;5053827;28;20021;-70
2023/10/30 12:58:49;;;;;;;;;;;;;;;;;;5054425;28;20075;-70
2023/10/30 13:01:14;;;;;;;;;;;;;;;;;;5053930;28;20188;-70
2023/10/30 13:03:40;;;;;;;;;;;;;;;;;;5053769;28;19996;-69
2023/10/30 13:06:06;;;;;;;;;;;;;;;;;;5052330;28;20430;-69
2023/10/30 13:08:32;;;;;;;;;;;;;;;;;;5054036;28;19990;-68
2023/10/30 13:10:58;;;;;;;;;;;;;;;;;;5053686;28;20001;-68
2023/10/30 13:13:24;;;;;;;;;;;;;;;;;;5053406;28;20116;-68
2023/10/30 13:15:50;;;;;;;;;;;;;;;;;;5053390;28;20137;-69
2023/10/30 13:18:17;;;;;;;;;;;;;;;;;;5053293;28;19989;-69
2023/10/30 13:20:42;;;;;;;;;;;;;;;;;;5053740;28;20035;-69
2023/10/30 13:23:08;;;;;;;;;;;;;;;;;;5052398;28;20419;-68
2023/10/30 13:25:34;;;;;;;;;;;;;;;;;;5053524;28;19989;-69
2023/10/30 13:28:00;;;;;;;;;;;;;;;;;;5053069;28;19990;-70
2023/10/30 13:30:27;;;;;;;;;;;;;;;;;;5053116;28;20055;-70
2023/10/30 13:32:56;;;;;;;;;;;;;;;;;;5053272;28;20001;-70
2023/10/30 13:35:21;;;;;;;;;;;;;;;;;;5052118;28;20126;-69
2023/10/30 13:37:47;;;;;;;;;;;;;;;;;;5053038;28;20453;-69
2023/10/30 13:40:13;;;;;;;;;;;;;;;;;;5052949;28;19985;-70
2023/10/30 13:42:39;;;;;;;;;;;;;;;;;;5052854;28;19989;-68
2023/10/30 13:45:05;;;;;;;;;;;;;;;;;;5052944;28;20080;-69
2023/10/30 13:47:31;;;;;;;;;;;;;;;;;;5052810;28;20044;-69
2023/10/30 13:49:57;;;;;;;;;;;;;;;;;;5052730;28;20450;-70
2023/10/30 13:52:24;;;;;;;;;;;;;;;;;;5051654;28;20036;-69
2023/10/30 13:54:52;;;;;;;;;;;;;;;;;;5051531;28;20014;-69
2023/10/30 13:57:18;;;;;;;;;;;;;;;;;;5052890;28;20431;-70
2023/10/30 13:59:46;;;;;;;;;;;;;;;;;;5052590;28;19990;-69
2023/10/30 14:02:14;;;;;;;;;;;;;;;;;;5052464;28;20245;-70
2023/10/30 14:04:39;;;;;;;;;;;;;;;;;;5052451;28;19994;-70
2023/10/30 14:07:05;;;;;;;;;;;;;;;;;;5052448;28;19996;-70
2023/10/30 14:09:31;;;;;;;;;;;;;;;;;;5052643;28;19990;-69
2023/10/30 14:11:57;;;;;;;;;;;;;;;;;;5050979;28;20579;-70
2023/10/30 14:14:23;;;;;;;;;;;;;;;;;;5052019;28;20029;-70
2023/10/30 14:16:51;;;;;;;;;;;;;;;;;;5052261;28;19989;-70
2023/10/30 14:19:17;;;;;;;;;;;;;;;;;;5052526;28;19994;-69
2023/10/30 14:21:44;;;;;;;;;;;;;;;;;;5052258;28;19997;-70
2023/10/30 14:24:10;;;;;;;;;;;;;;;;;;5052202;28;19990;-69
2023/10/30 14:26:39;;;;;;;;;;;;;;;;;;5051141;28;19997;-69
2023/10/30 14:29:05;;;;;;;;;;;;;;;;;;5052156;28;19990;-69
2023/10/30 14:31:31;;;;;;;;;;;;;;;;;;5052208;28;20001;-68
2023/10/30 14:33:57;;;;;;;;;;;;;;;;;;5052125;28;20005;-70
2023/10/30 14:36:23;;;;;;;;;;;;;;;;;;5052080;28;20024;-69
2023/10/30 14:38:49;;;;;;;;;;;;;;;;;;5051784;28;20015;-70
2023/10/30 14:41:15;;;;;;;;;;;;;;;;;;5051783;28;20043;-69
2023/10/30 14:43:40;;;;;;;;;;;;;;;;;;5050620;28;19998;-70
2023/10/30 14:46:06;;;;;;;;;;;;;;;;;;5050774;28;20036;-68
2023/10/30 14:48:32;;;;;;;;;;;;;;;;;;5051862;28;20056;-70
2023/10/30 14:50:58;;;;;;;;;;;;;;;;;;5033883;28;20454;-69
2023/10/30 14:53:24;;;;;;;;;;;;;;;;;;5051649;28;19986;-70
2023/10/30 14:55:53;;;;;;;;;;;;;;;;;;5051939;28;20024;-69
2023/10/30 14:58:19;;;;;;;;;;;;;;;;;;5051462;28;20414;-70
2023/10/30 15:00:45;;;;;;;;;;;;;;;;;;5050184;28;20001;-70
2023/10/30 15:03:11;;;;;;;;;;;;;;;;;;5051622;28;19990;-70
2023/10/30 15:05:37;;;;;;;;;;;;;;;;;;5051629;28;20399;-70
2023/10/30 15:08:03;;;;;;;;;;;;;;;;;;5051807;28;20603;-69
2023/10/30 15:10:29;;;;;;;;;;;;;;;;;;5051574;28;20092;-70
2023/10/30 15:12:57;;;;;;;;;;;;;;;;;;5051739;28;20157;-70
2023/10/30 15:15:23;;;;;;;;;;;;;;;;;;5033494;28;20017;-70
2023/10/30 15:17:51;;;;;;;;;;;;;;;;;;5048910;28;20234;-70
2023/10/30 15:20:17;;;;;;;;;;;;;;;;;;5051414;28;20358;-68
2023/10/30 15:22:43;;;;;;;;;;;;;;;;;;5051439;28;19986;-70
2023/10/30 15:25:09;;;;;;;;;;;;;;;;;;5051164;28;20031;-70
2023/10/30 15:27:36;;;;;;;;;;;;;;;;;;5051224;28;19989;-70
2023/10/30 15:30:02;;;;;;;;;;;;;;;;;;5051291;28;20028;-70
2023/10/30 15:32:28;;;;;;;;;;;;;;;;;;5051108;28;20006;-70
2023/10/30 15:34:54;;;;;;;;;;;;;;;;;;5049417;28;20048;-69
2023/10/30 15:37:20;;;;;;;;;;;;;;;;;;5039652;28;20043;-70
2023/10/30 15:39:46;;;;;;;;;;;;;;;;;;5027980;28;19994;-70
2023/10/30 15:42:11;;;;;;;;;;;;;;;;;;5031021;28;19987;-70
2023/10/30 15:44:37;;;;;;;;;;;;;;;;;;5031428;28;19993;-70
2023/10/30 15:47:03;;;;;;;;;;;;;;;;;;5029373;28;20370;-70
2023/10/30 15:49:29;;;;;;;;;;;;;;;;;;5030257;28;19994;-70
2023/10/30 15:51:55;;;;;;;;;;;;;;;;;;5039721;28;19993;-69
2023/10/30 15:54:21;;;;;;;;;;;;;;;;;;5049019;28;19996;-69
2023/10/30 15:56:47;;;;;;;;;;;;;;;;;;5030992;28;20481;-69
2023/10/30 15:59:13;;;;;;;;;;;;;;;;;;5031159;28;20108;-73
2023/10/30 16:01:39;;;;;;;;;;;;;;;;;;5031379;28;20034;-69
2023/10/30 16:04:05;;;;;;;;;;;;;;;;;;5012549;28;20088;-70
2023/10/30 16:06:31;;;;;;;;;;;;;;;;;;5030038;28;19986;-71
2023/10/30 16:08:57;;;;;;;;;;;;;;;;;;5046507;28;19990;-70
2023/10/30 16:11:23;;;;;;;;;;;;;;;;;;5030767;28;20000;-70
2023/10/30 16:13:48;;;;;;;;;;;;;;;;;;5030521;28;20017;-70
2023/10/30 16:16:14;;;;;;;;;;;;;;;;;;5029640;28;20014;-71
2023/10/30 16:18:40;;;;;;;;;;;;;;;;;;5033985;28;20220;-71
2023/10/30 16:21:06;;;;;;;;;;;;;;;;;;5034633;28;20433;-71
2023/10/30 16:23:34;;;;;;;;;;;;;;;;;;5033750;28;20074;-71
2023/10/30 16:26:00;;;;;;;;;;;;;;;;;;5050274;28;20024;-71
2023/10/30 16:28:26;;;;;;;;;;;;;;;;;;5031866;28;19998;-70
2023/10/30 16:30:52;;;;;;;;;;;;;;;;;;5033558;28;19989;-70
2023/10/30 16:33:18;;;;;;;;;;;;;;;;;;5016424;28;20508;-72
2023/10/30 16:35:45;;;;;;;;;;;;;;;;;;5033116;28;20018;-71
2023/10/30 16:38:11;;;;;;;;;;;;;;;;;;5034248;28;20335;-70